sensor_id;sensor_type;location;lat;lon;timestamp;pressure;altitude;pressure_sealevel;temperature;humidity
31096;BME280;17749;51.962;8.560;2023-05-20T05:00:36;100786.94;;;10.56;100.00
31096;BME280;17749;51.962;8.560;2023-05-20T05:03:04;100793.09;;;10.58;100.00
31096;BME280;17749;51.962;8.560;2023-05-20T05:05:33;100788.63;;;10.58;100.00
31096;BME280;17749;51.962;8.560;2023-05-20T05:08:04;100781.53;;;10.59;100.00
31096;BME280;17749;51.962;8.560;2023-05-20T05:10:36;100784.06;;;10.63;100.00
31096;BME280;17749;51.962;8.560;2023-05-20T05:13:03;100786.69;;;10.65;100.00
31096;BME280;17749;51.962;8.560;2023-05-20T05:15:31;100782.03;;;10.71;100.00
31096;BME280;17749;51.962;8.560;2023-05-20T05:18:00;100774.97;;;10.70;100.00
31096;BME280;17749;51.962;8.560;2023-05-20T05:20:28;100776.66;;;10.73;100.00
31096;BME280;17749;51.962;8.560;2023-05-20T05:22:55;100774.00;;;10.73;100.00
31096;BME280;17749;51.962;8.560;2023-05-20T05:25:22;100781.88;;;10.78;100.00
31096;BME280;17749;51.962;8.560;2023-05-20T05:27:49;100773.75;;;10.82;100.00
31096;BME280;17749;51.962;8.560;2023-05-20T05:30:16;100788.78;;;10.83;100.00
31096;BME280;17749;51.962;8.560;2023-05-20T05:32:44;100783.44;;;10.85;100.00
31096;BME280;17749;51.962;8.560;2023-05-20T05:35:11;100794.75;;;10.91;100.00
31096;BME280;17749;51.962;8.560;2023-05-20T05:37:38;100791.16;;;10.92;100.00
31096;BME280;17749;51.962;8.560;2023-05-20T05:40:06;100787.50;;;10.96;100.00
31096;BME280;17749;51.962;8.560;2023-05-20T05:42:33;100790.88;;;11.03;100.00
31096;BME280;17749;51.962;8.560;2023-05-20T05:45:00;100783.63;;;11.07;100.00
31096;BME280;17749;51.962;8.560;2023-05-20T05:47:28;100781.69;;;11.12;100.00
31096;BME280;17749;51.962;8.560;2023-05-20T05:49:59;100789.38;;;11.21;100.00
31096;BME280;17749;51.962;8.560;2023-05-20T05:52:27;100780.47;;;11.22;100.00
31096;BME280;17749;51.962;8.560;2023-05-20T05:54:54;100774.91;;;11.30;100.00
31096;BME280;17749;51.962;8.560;2023-05-20T05:57:21;100781.00;;;11.33;100.00
31096;BME280;17749;51.962;8.560;2023-05-20T05:59:49;100785.31;;;11.37;100.00
31096;BME280;17749;51.962;8.560;2023-05-20T06:02:16;100788.75;;;11.41;100.00
31096;BME280;17749;51.962;8.560;2023-05-20T06:04:43;100787.78;;;11.44;100.00
31096;BME280;17749;51.962;8.560;2023-05-20T06:07:10;100776.09;;;11.48;100.00
31096;BME280;17749;51.962;8.560;2023-05-20T06:09:38;100778.56;;;11.54;100.00
31096;BME280;17749;51.962;8.560;2023-05-20T06:12:05;100778.44;;;11.57;100.00
31096;BME280;17749;51.962;8.560;2023-05-20T06:14:32;100763.31;;;11.57;100.00
31096;BME280;17749;51.962;8.560;2023-05-20T06:17:00;100758.69;;;11.62;100.00
31096;BME280;17749;51.962;8.560;2023-05-20T06:19:27;100771.72;;;11.72;100.00
31096;BME280;17749;51.962;8.560;2023-05-20T06:21:55;100762.69;;;11.76;100.00
31096;BME280;17749;51.962;8.560;2023-05-20T06:24:23;100767.75;;;11.83;100.00
31096;BME280;17749;51.962;8.560;2023-05-20T06:26:50;100766.66;;;11.91;100.00
31096;BME280;17749;51.962;8.560;2023-05-20T06:29:18;100765.25;;;12.05;100.00
31096;BME280;17749;51.962;8.560;2023-05-20T06:31:45;100761.53;;;12.35;100.00
31096;BME280;17749;51.962;8.560;2023-05-20T06:34:12;100771.41;;;12.56;100.00
31096;BME280;17749;51.962;8.560;2023-05-20T06:36:39;100764.31;;;12.79;100.00
31096;BME280;17749;51.962;8.560;2023-05-20T06:39:07;100767.66;;;13.07;100.00
31096;BME280;17749;51.962;8.560;2023-05-20T06:41:41;100764.81;;;13.34;100.00
31096;BME280;17749;51.962;8.560;2023-05-20T06:44:09;100766.88;;;13.49;100.00
31096;BME280;17749;51.962;8.560;2023-05-20T06:46:36;100767.41;;;13.57;100.00
31096;BME280;17749;51.962;8.560;2023-05-20T06:49:05;100758.06;;;13.68;100.00
31096;BME280;17749;51.962;8.560;2023-05-20T06:51:32;100755.50;;;13.85;100.00
31096;BME280;17749;51.962;8.560;2023-05-20T06:53:59;100748.81;;;14.16;100.00
31096;BME280;17749;51.962;8.560;2023-05-20T06:56:26;100758.75;;;14.53;100.00
31096;BME280;17749;51.962;8.560;2023-05-20T06:58:54;100746.59;;;14.84;100.00
31096;BME280;17749;51.962;8.560;2023-05-20T07:01:21;100746.00;;;15.15;100.00
31096;BME280;17749;51.962;8.560;2023-05-20T07:03:48;100744.59;;;15.25;100.00
31096;BME280;17749;51.962;8.560;2023-05-20T07:06:16;100751.91;;;15.22;100.00
31096;BME280;17749;51.962;8.560;2023-05-20T07:08:43;100751.78;;;15.25;100.00
31096;BME280;17749;51.962;8.560;2023-05-20T07:11:10;100757.88;;;15.28;100.00
31096;BME280;17749;51.962;8.560;2023-05-20T07:13:37;100756.03;;;15.29;100.00
31096;BME280;17749;51.962;8.560;2023-05-20T07:16:05;100752.94;;;15.19;100.00
31096;BME280;17749;51.962;8.560;2023-05-20T07:18:34;100746.16;;;14.93;100.00
31096;BME280;17749;51.962;8.560;2023-05-20T07:21:03;100748.75;;;15.13;100.00
31096;BME280;17749;51.962;8.560;2023-05-20T07:24:05;100747.78;;;15.70;100.00
31096;BME280;17749;51.962;8.560;2023-05-20T07:26:32;100749.41;;;15.90;100.00
31096;BME280;17749;51.962;8.560;2023-05-20T07:29:03;100738.94;;;16.18;100.00
31096;BME280;17749;51.962;8.560;2023-05-20T07:31:30;100739.75;;;16.20;100.00
31096;BME280;17749;51.962;8.560;2023-05-20T07:33:58;100744.31;;;16.18;100.00
31096;BME280;17749;51.962;8.560;2023-05-20T07:36:26;100749.31;;;16.42;100.00
31096;BME280;17749;51.962;8.560;2023-05-20T07:38:54;100743.69;;;16.31;100.00
31096;BME280;17749;51.962;8.560;2023-05-20T07:41:32;100740.47;;;16.07;100.00
31096;BME280;17749;51.962;8.560;2023-05-20T07:44:01;100734.25;;;16.06;100.00
31096;BME280;17749;51.962;8.560;2023-05-20T07:46:29;100737.88;;;16.05;100.00
31096;BME280;17749;51.962;8.560;2023-05-20T07:48:57;100726.50;;;16.00;100.00
31096;BME280;17749;51.962;8.560;2023-05-20T07:51:24;100729.56;;;16.10;100.00
31096;BME280;17749;51.962;8.560;2023-05-20T07:53:52;100739.72;;;16.38;100.00
31096;BME280;17749;51.962;8.560;2023-05-20T07:56:19;100730.66;;;16.56;100.00
31096;BME280;17749;51.962;8.560;2023-05-20T07:58:56;100724.13;;;16.60;100.00
31096;BME280;17749;51.962;8.560;2023-05-20T08:01:30;100734.56;;;16.67;100.00
31096;BME280;17749;51.962;8.560;2023-05-20T08:03:58;100727.44;;;16.65;100.00
31096;BME280;17749;51.962;8.560;2023-05-20T08:06:25;100726.75;;;16.62;100.00
31096;BME280;17749;51.962;8.560;2023-05-20T08:08:56;100736.63;;;16.61;100.00
31096;BME280;17749;51.962;8.560;2023-05-20T08:11:28;100738.00;;;16.69;100.00
31096;BME280;17749;51.962;8.560;2023-05-20T08:13:56;100740.38;;;16.75;100.00
31096;BME280;17749;51.962;8.560;2023-05-20T08:16:25;100735.00;;;16.75;100.00
31096;BME280;17749;51.962;8.560;2023-05-20T08:18:53;100725.94;;;16.77;100.00
31096;BME280;17749;51.962;8.560;2023-05-20T08:21:20;100728.50;;;16.79;100.00
31096;BME280;17749;51.962;8.560;2023-05-20T08:23:47;100731.91;;;16.82;100.00
31096;BME280;17749;51.962;8.560;2023-05-20T08:26:16;100718.28;;;16.85;100.00
31096;BME280;17749;51.962;8.560;2023-05-20T08:28:43;100725.31;;;16.88;100.00
31096;BME280;17749;51.962;8.560;2023-05-20T08:31:10;100715.34;;;16.90;100.00
31096;BME280;17749;51.962;8.560;2023-05-20T08:33:37;100721.66;;;16.89;100.00
31096;BME280;17749;51.962;8.560;2023-05-20T08:36:05;100706.66;;;16.85;100.00
31096;BME280;17749;51.962;8.560;2023-05-20T08:38:34;100712.28;;;16.96;100.00
31096;BME280;17749;51.962;8.560;2023-05-20T08:41:02;100710.63;;;17.09;100.00
31096;BME280;17749;51.962;8.560;2023-05-20T08:43:30;100712.19;;;17.29;100.00
31096;BME280;17749;51.962;8.560;2023-05-20T08:45:59;100700.00;;;17.38;100.00
31096;BME280;17749;51.962;8.560;2023-05-20T08:48:29;100695.63;;;17.51;100.00
31096;BME280;17749;51.962;8.560;2023-05-20T08:50:57;100704.63;;;17.66;100.00
31096;BME280;17749;51.962;8.560;2023-05-20T08:53:24;100698.56;;;17.77;100.00
31096;BME280;17749;51.962;8.560;2023-05-20T08:55:56;100695.78;;;17.79;100.00
31096;BME280;17749;51.962;8.560;2023-05-20T08:58:30;100695.19;;;17.73;100.00
31096;BME280;17749;51.962;8.560;2023-05-20T09:00:58;100699.38;;;17.79;100.00
31096;BME280;17749;51.962;8.560;2023-05-20T09:03:25;100693.81;;;17.82;100.00
31096;BME280;17749;51.962;8.560;2023-05-20T09:05:53;100702.22;;;17.76;100.00
31096;BME280;17749;51.962;8.560;2023-05-20T09:08:23;100694.41;;;17.87;100.00
31096;BME280;17749;51.962;8.560;2023-05-20T09:10:54;100697.38;;;17.97;100.00
31096;BME280;17749;51.962;8.560;2023-05-20T09:13:22;100703.25;;;18.04;100.00
31096;BME280;17749;51.962;8.560;2023-05-20T09:15:50;100703.81;;;17.94;100.00
31096;BME280;17749;51.962;8.560;2023-05-20T09:18:16;100701.53;;;17.72;100.00
31096;BME280;17749;51.962;8.560;2023-05-20T09:20:46;100705.09;;;17.73;100.00
31096;BME280;17749;51.962;8.560;2023-05-20T09:23:13;100694.69;;;17.67;100.00
31096;BME280;17749;51.962;8.560;2023-05-20T09:25:40;100697.19;;;17.56;100.00
31096;BME280;17749;51.962;8.560;2023-05-20T09:28:07;100691.53;;;17.44;100.00
31096;BME280;17749;51.962;8.560;2023-05-20T09:30:34;100696.47;;;17.52;100.00
31096;BME280;17749;51.962;8.560;2023-05-20T09:33:04;100686.63;;;17.67;100.00
31096;BME280;17749;51.962;8.560;2023-05-20T09:35:33;100684.25;;;17.77;100.00
31096;BME280;17749;51.962;8.560;2023-05-20T09:38:01;100680.53;;;17.93;100.00
31096;BME280;17749;51.962;8.560;2023-05-20T09:40:30;100678.22;;;18.02;100.00
31096;BME280;17749;51.962;8.560;2023-05-20T09:43:05;100677.38;;;18.01;100.00
31096;BME280;17749;51.962;8.560;2023-05-20T09:45:37;100669.94;;;18.05;100.00
31096;BME280;17749;51.962;8.560;2023-05-20T09:48:04;100674.75;;;18.28;100.00
31096;BME280;17749;51.962;8.560;2023-05-20T09:50:32;100681.31;;;18.38;100.00
31096;BME280;17749;51.962;8.560;2023-05-20T09:53:02;100679.75;;;18.49;100.00
31096;BME280;17749;51.962;8.560;2023-05-20T09:55:29;100676.84;;;18.66;100.00
31096;BME280;17749;51.962;8.560;2023-05-20T09:57:58;100679.16;;;18.87;100.00
31096;BME280;17749;51.962;8.560;2023-05-20T10:00:27;100669.09;;;18.89;100.00
31096;BME280;17749;51.962;8.560;2023-05-20T10:02:55;100687.63;;;18.80;100.00
31096;BME280;17749;51.962;8.560;2023-05-20T10:05:24;100678.47;;;18.83;100.00
31096;BME280;17749;51.962;8.560;2023-05-20T10:10:53;100669.81;;;19.72;100.00
31096;BME280;17749;51.962;8.560;2023-05-20T10:16:21;100673.72;;;19.81;100.00
31096;BME280;17749;51.962;8.560;2023-05-20T10:18:57;100678.25;;;19.80;99.92
31096;BME280;17749;51.962;8.560;2023-05-20T10:21:27;100677.63;;;20.02;99.63
31096;BME280;17749;51.962;8.560;2023-05-20T10:24:04;100669.50;;;20.02;98.41
31096;BME280;17749;51.962;8.560;2023-05-20T10:26:40;100669.59;;;20.13;98.15
31096;BME280;17749;51.962;8.560;2023-05-20T10:29:17;100672.81;;;20.44;97.76
31096;BME280;17749;51.962;8.560;2023-05-20T10:31:48;100656.91;;;20.52;96.48
31096;BME280;17749;51.962;8.560;2023-05-20T10:34:17;100673.66;;;20.70;97.13
31096;BME280;17749;51.962;8.560;2023-05-20T10:37:05;100665.47;;;20.46;95.40
31096;BME280;17749;51.962;8.560;2023-05-20T10:39:32;100670.91;;;20.21;95.92
31096;BME280;17749;51.962;8.560;2023-05-20T10:42:07;100668.97;;;19.97;96.95
31096;BME280;17749;51.962;8.560;2023-05-20T10:44:44;100679.78;;;19.97;98.28
31096;BME280;17749;51.962;8.560;2023-05-20T10:47:11;100663.25;;;20.02;98.21
31096;BME280;17749;51.962;8.560;2023-05-20T10:49:45;100670.06;;;20.07;96.42
31096;BME280;17749;51.962;8.560;2023-05-20T10:52:13;100657.50;;;19.81;97.98
31096;BME280;17749;51.962;8.560;2023-05-20T10:57:22;100654.75;;;19.55;98.95
31096;BME280;17749;51.962;8.560;2023-05-20T10:59:50;100663.00;;;19.66;99.01
31096;BME280;17749;51.962;8.560;2023-05-20T11:02:18;100650.53;;;19.64;99.14
31096;BME280;17749;51.962;8.560;2023-05-20T11:04:48;100652.66;;;19.46;98.46
31096;BME280;17749;51.962;8.560;2023-05-20T11:07:29;100644.44;;;19.35;99.54
31096;BME280;17749;51.962;8.560;2023-05-20T11:09:59;100650.88;;;19.19;100.00
31096;BME280;17749;51.962;8.560;2023-05-20T11:12:26;100649.75;;;19.09;100.00
31096;BME280;17749;51.962;8.560;2023-05-20T11:14:53;100644.72;;;18.90;100.00
31096;BME280;17749;51.962;8.560;2023-05-20T11:17:20;100645.38;;;18.94;100.00
31096;BME280;17749;51.962;8.560;2023-05-20T11:19:47;100646.44;;;18.91;100.00
31096;BME280;17749;51.962;8.560;2023-05-20T11:22:14;100643.03;;;18.75;100.00
31096;BME280;17749;51.962;8.560;2023-05-20T11:24:41;100635.59;;;18.78;100.00
31096;BME280;17749;51.962;8.560;2023-05-20T11:27:08;100632.06;;;18.64;100.00
31096;BME280;17749;51.962;8.560;2023-05-20T11:29:36;100627.13;;;18.70;100.00
31096;BME280;17749;51.962;8.560;2023-05-20T11:32:03;100637.91;;;18.70;100.00
31096;BME280;17749;51.962;8.560;2023-05-20T11:34:34;100632.16;;;18.76;100.00
31096;BME280;17749;51.962;8.560;2023-05-20T11:37:06;100627.38;;;18.94;100.00
31096;BME280;17749;51.962;8.560;2023-05-20T11:39:34;100625.75;;;18.92;100.00
31096;BME280;17749;51.962;8.560;2023-05-20T11:42:02;100614.97;;;19.04;100.00
31096;BME280;17749;51.962;8.560;2023-05-20T11:44:29;100639.03;;;19.35;100.00
31096;BME280;17749;51.962;8.560;2023-05-20T11:47:00;100624.22;;;19.27;100.00
31096;BME280;17749;51.962;8.560;2023-05-20T11:49:28;100625.88;;;19.43;100.00
31096;BME280;17749;51.962;8.560;2023-05-20T11:51:56;100624.75;;;19.33;100.00
31096;BME280;17749;51.962;8.560;2023-05-20T11:54:23;100632.34;;;19.40;100.00
31096;BME280;17749;51.962;8.560;2023-05-20T11:56:53;100615.50;;;19.37;100.00
31096;BME280;17749;51.962;8.560;2023-05-20T11:59:22;100624.38;;;19.39;100.00
31096;BME280;17749;51.962;8.560;2023-05-20T12:01:49;100624.56;;;19.48;100.00
31096;BME280;17749;51.962;8.560;2023-05-20T12:04:16;100620.19;;;19.60;100.00
31096;BME280;17749;51.962;8.560;2023-05-20T12:06:44;100615.41;;;19.64;100.00
31096;BME280;17749;51.962;8.560;2023-05-20T12:09:12;100609.91;;;19.65;99.90
31096;BME280;17749;51.962;8.560;2023-05-20T12:11:40;100606.34;;;19.78;98.96
31096;BME280;17749;51.962;8.560;2023-05-20T12:14:08;100591.13;;;19.89;99.48
31096;BME280;17749;51.962;8.560;2023-05-20T12:16:35;100591.19;;;20.13;98.53
31096;BME280;17749;51.962;8.560;2023-05-20T12:19:04;100593.91;;;20.13;98.52
31096;BME280;17749;51.962;8.560;2023-05-20T12:21:31;100590.44;;;20.11;97.99
31096;BME280;17749;51.962;8.560;2023-05-20T12:23:58;100602.38;;;20.33;98.86
31096;BME280;17749;51.962;8.560;2023-05-20T12:26:27;100593.44;;;20.20;97.13
31096;BME280;17749;51.962;8.560;2023-05-20T12:28:54;100591.41;;;20.23;96.90
31096;BME280;17749;51.962;8.560;2023-05-20T12:31:22;100594.25;;;19.96;97.93
31096;BME280;17749;51.962;8.560;2023-05-20T12:33:49;100585.50;;;19.80;96.89
31096;BME280;17749;51.962;8.560;2023-05-20T12:36:16;100586.81;;;19.74;97.42
31096;BME280;17749;51.962;8.560;2023-05-20T12:38:45;100580.97;;;19.67;99.00
31096;BME280;17749;51.962;8.560;2023-05-20T12:41:12;100586.53;;;19.64;99.07
31096;BME280;17749;51.962;8.560;2023-05-20T12:43:39;100575.72;;;19.52;98.84
31096;BME280;17749;51.962;8.560;2023-05-20T12:46:06;100571.31;;;19.51;99.31
31096;BME280;17749;51.962;8.560;2023-05-20T12:48:33;100579.50;;;19.49;99.92
31096;BME280;17749;51.962;8.560;2023-05-20T12:51:00;100568.38;;;19.41;98.44
31096;BME280;17749;51.962;8.560;2023-05-20T12:53:27;100562.13;;;19.40;98.88
31096;BME280;17749;51.962;8.560;2023-05-20T12:55:54;100567.44;;;19.42;100.00
31096;BME280;17749;51.962;8.560;2023-05-20T12:58:20;100575.88;;;19.50;100.00
31096;BME280;17749;51.962;8.560;2023-05-20T13:00:47;100566.88;;;19.37;100.00
31096;BME280;17749;51.962;8.560;2023-05-20T13:03:14;100566.00;;;19.49;99.91
31096;BME280;17749;51.962;8.560;2023-05-20T13:05:41;100577.72;;;19.62;100.00
31096;BME280;17749;51.962;8.560;2023-05-20T13:08:08;100564.53;;;19.58;99.38
31096;BME280;17749;51.962;8.560;2023-05-20T13:10:36;100561.09;;;19.68;98.98
31096;BME280;17749;51.962;8.560;2023-05-20T13:13:04;100559.97;;;19.58;98.44
31096;BME280;17749;51.962;8.560;2023-05-20T13:15:31;100558.44;;;19.54;99.14
31096;BME280;17749;51.962;8.560;2023-05-20T13:17:59;100546.38;;;19.60;99.64
31096;BME280;17749;51.962;8.560;2023-05-20T13:20:28;100545.47;;;19.59;98.71
31096;BME280;17749;51.962;8.560;2023-05-20T13:22:55;100532.75;;;19.61;98.62
31096;BME280;17749;51.962;8.560;2023-05-20T13:25:22;100542.91;;;19.58;99.81
31096;BME280;17749;51.962;8.560;2023-05-20T13:27:49;100538.16;;;19.61;99.87
31096;BME280;17749;51.962;8.560;2023-05-20T13:30:16;100522.81;;;19.75;100.00
31096;BME280;17749;51.962;8.560;2023-05-20T13:32:43;100521.25;;;19.96;99.86
31096;BME280;17749;51.962;8.560;2023-05-20T13:35:10;100533.88;;;20.08;99.17
31096;BME280;17749;51.962;8.560;2023-05-20T13:37:38;100532.53;;;19.90;97.74
31096;BME280;17749;51.962;8.560;2023-05-20T13:40:06;100521.06;;;19.48;98.56
31096;BME280;17749;51.962;8.560;2023-05-20T13:42:33;100506.59;;;19.49;99.32
31096;BME280;17749;51.962;8.560;2023-05-20T13:45:00;100521.19;;;19.34;99.44
31096;BME280;17749;51.962;8.560;2023-05-20T13:47:27;100512.22;;;19.20;100.00
31096;BME280;17749;51.962;8.560;2023-05-20T13:49:54;100511.81;;;19.39;100.00
31096;BME280;17749;51.962;8.560;2023-05-20T13:52:21;100511.34;;;19.33;99.37
31096;BME280;17749;51.962;8.560;2023-05-20T13:54:47;100505.31;;;19.42;99.93
31096;BME280;17749;51.962;8.560;2023-05-20T13:57:15;100511.56;;;19.55;99.52
31096;BME280;17749;51.962;8.560;2023-05-20T13:59:41;100502.16;;;19.61;99.03
31096;BME280;17749;51.962;8.560;2023-05-20T14:02:08;100493.63;;;19.54;100.00
31096;BME280;17749;51.962;8.560;2023-05-20T14:04:36;100494.69;;;19.52;100.00
31096;BME280;17749;51.962;8.560;2023-05-20T14:07:06;100501.00;;;19.52;99.29
31096;BME280;17749;51.962;8.560;2023-05-20T14:09:35;100506.63;;;19.23;100.00
31096;BME280;17749;51.962;8.560;2023-05-20T14:12:03;100509.84;;;19.29;100.00
31096;BME280;17749;51.962;8.560;2023-05-20T14:14:30;100506.41;;;19.26;100.00
31096;BME280;17749;51.962;8.560;2023-05-20T14:16:57;100516.13;;;19.42;99.77
31096;BME280;17749;51.962;8.560;2023-05-20T14:19:25;100512.13;;;19.47;100.00
31096;BME280;17749;51.962;8.560;2023-05-20T14:21:52;100505.84;;;19.47;99.78
31096;BME280;17749;51.962;8.560;2023-05-20T14:24:19;100506.28;;;19.54;100.00
31096;BME280;17749;51.962;8.560;2023-05-20T14:26:49;100505.84;;;19.47;100.00
31096;BME280;17749;51.962;8.560;2023-05-20T14:29:16;100496.00;;;19.33;100.00
31096;BME280;17749;51.962;8.560;2023-05-20T14:31:43;100485.66;;;19.27;100.00
31096;BME280;17749;51.962;8.560;2023-05-20T14:34:10;100497.31;;;19.27;100.00
31096;BME280;17749;51.962;8.560;2023-05-20T14:36:37;100487.50;;;19.26;100.00
31096;BME280;17749;51.962;8.560;2023-05-20T14:39:05;100492.66;;;19.17;100.00
31096;BME280;17749;51.962;8.560;2023-05-20T14:41:32;100496.00;;;18.95;100.00
31096;BME280;17749;51.962;8.560;2023-05-20T14:43:59;100508.09;;;18.89;100.00
31096;BME280;17749;51.962;8.560;2023-05-20T14:46:26;100495.03;;;18.96;100.00
31096;BME280;17749;51.962;8.560;2023-05-20T14:48:53;100496.00;;;18.95;100.00
31096;BME280;17749;51.962;8.560;2023-05-20T14:51:20;100488.19;;;18.77;100.00
31096;BME280;17749;51.962;8.560;2023-05-20T14:53:47;100489.91;;;18.78;100.00
31096;BME280;17749;51.962;8.560;2023-05-20T14:56:14;100489.91;;;18.78;100.00
31096;BME280;17749;51.962;8.560;2023-05-20T14:58:41;100492.44;;;18.67;100.00
31096;BME280;17749;51.962;8.560;2023-05-20T15:01:08;100491.59;;;18.67;100.00
31096;BME280;17749;51.962;8.560;2023-05-20T15:03:35;100489.63;;;18.56;100.00
31096;BME280;17749;51.962;8.560;2023-05-20T15:06:02;100493.59;;;18.50;100.00
31096;BME280;17749;51.962;8.560;2023-05-20T15:08:29;100487.72;;;18.44;100.00
31096;BME280;17749;51.962;8.560;2023-05-20T15:10:56;100491.97;;;18.48;100.00
31096;BME280;17749;51.962;8.560;2023-05-20T15:13:23;100491.63;;;18.39;100.00
31096;BME280;17749;51.962;8.560;2023-05-20T15:15:50;100490.56;;;18.28;100.00
31096;BME280;17749;51.962;8.560;2023-05-20T15:18:17;100494.03;;;18.30;100.00
31096;BME280;17749;51.962;8.560;2023-05-20T15:20:44;100498.38;;;18.32;100.00
31096;BME280;17749;51.962;8.560;2023-05-20T15:23:11;100495.69;;;18.18;100.00
31096;BME280;17749;51.962;8.560;2023-05-20T15:25:38;100494.97;;;18.02;100.00
31096;BME280;17749;51.962;8.560;2023-05-20T15:28:05;100487.25;;;18.10;100.00
31096;BME280;17749;51.962;8.560;2023-05-20T15:30:32;100484.69;;;18.08;100.00
31096;BME280;17749;51.962;8.560;2023-05-20T15:32:59;100481.81;;;17.97;100.00
31096;BME280;17749;51.962;8.560;2023-05-20T15:35:26;100488.47;;;17.91;100.00
31096;BME280;17749;51.962;8.560;2023-05-20T15:37:54;100475.97;;;17.90;100.00
31096;BME280;17749;51.962;8.560;2023-05-20T15:40:20;100478.00;;;17.87;100.00
31096;BME280;17749;51.962;8.560;2023-05-20T15:42:48;100481.34;;;17.90;100.00
31096;BME280;17749;51.962;8.560;2023-05-20T15:45:16;100475.97;;;17.90;100.00
31096;BME280;17749;51.962;8.560;2023-05-20T15:47:43;100470.97;;;17.84;100.00
31096;BME280;17749;51.962;8.560;2023-05-20T15:50:10;100467.28;;;17.71;100.00
31096;BME280;17749;51.962;8.560;2023-05-20T15:52:38;100479.44;;;17.64;100.00
31096;BME280;17749;51.962;8.560;2023-05-20T15:55:05;100474.72;;;17.67;100.00
31096;BME280;17749;51.962;8.560;2023-05-20T15:57:33;100472.88;;;17.68;100.00
31096;BME280;17749;51.962;8.560;2023-05-20T16:00:00;100480.22;;;17.66;100.00
31096;BME280;17749;51.962;8.560;2023-05-20T16:02:27;100474.13;;;17.62;100.00
31096;BME280;17749;51.962;8.560;2023-05-20T16:04:54;100468.16;;;17.57;100.00
31096;BME280;17749;51.962;8.560;2023-05-20T16:07:21;100469.25;;;17.69;100.00
31096;BME280;17749;51.962;8.560;2023-05-20T16:09:48;100468.25;;;17.70;100.00
31096;BME280;17749;51.962;8.560;2023-05-20T16:12:15;100458.06;;;17.75;100.00
31096;BME280;17749;51.962;8.560;2023-05-20T16:14:42;100466.91;;;17.63;100.00
31096;BME280;17749;51.962;8.560;2023-05-20T16:17:10;100467.59;;;17.66;100.00
31096;BME280;17749;51.962;8.560;2023-05-20T16:19:37;100470.38;;;17.65;100.00
31096;BME280;17749;51.962;8.560;2023-05-20T16:22:04;100461.16;;;17.69;100.00
31096;BME280;17749;51.962;8.560;2023-05-20T16:24:31;100463.47;;;17.61;100.00
31096;BME280;17749;51.962;8.560;2023-05-20T16:26:58;100462.59;;;17.60;100.00
31096;BME280;17749;51.962;8.560;2023-05-20T16:29:25;100467.31;;;17.57;100.00
31096;BME280;17749;51.962;8.560;2023-05-20T16:31:52;100455.19;;;17.49;100.00
31096;BME280;17749;51.962;8.560;2023-05-20T16:34:19;100453.69;;;17.45;100.00
31096;BME280;17749;51.962;8.560;2023-05-20T16:36:46;100450.66;;;17.50;100.00
31096;BME280;17749;51.962;8.560;2023-05-20T16:39:13;100442.41;;;17.39;100.00
31096;BME280;17749;51.962;8.560;2023-05-20T16:41:41;100441.94;;;17.32;100.00
31096;BME280;17749;51.962;8.560;2023-05-20T16:44:09;100441.94;;;17.32;100.00
31096;BME280;17749;51.962;8.560;2023-05-20T16:46:36;100441.94;;;17.32;100.00
31096;BME280;17749;51.962;8.560;2023-05-20T16:49:03;100445.13;;;17.24;100.00
31096;BME280;17749;51.962;8.560;2023-05-20T16:51:30;100442.91;;;17.17;100.00
31096;BME280;17749;51.962;8.560;2023-05-20T16:53:57;100446.19;;;17.22;100.00
31096;BME280;17749;51.962;8.560;2023-05-20T16:56:24;100440.78;;;17.22;100.00
31096;BME280;17749;51.962;8.560;2023-05-20T16:58:51;100439.81;;;17.23;100.00
31096;BME280;17749;51.962;8.560;2023-05-20T17:01:18;100434.25;;;17.26;100.00
31096;BME280;17749;51.962;8.560;2023-05-20T17:03:47;100426.28;;;17.24;100.00
31096;BME280;17749;51.962;8.560;2023-05-20T17:06:14;100435.41;;;17.22;100.00
31096;BME280;17749;51.962;8.560;2023-05-20T17:08:41;100432.91;;;17.04;100.00
31096;BME280;17749;51.962;8.560;2023-05-20T17:11:08;100434.63;;;16.91;100.00
31096;BME280;17749;51.962;8.560;2023-05-20T17:13:35;100433.84;;;16.89;100.00
31096;BME280;17749;51.962;8.560;2023-05-20T17:16:02;100443.06;;;16.85;100.00
31096;BME280;17749;51.962;8.560;2023-05-20T17:18:29;100437.69;;;16.85;100.00
31096;BME280;17749;51.962;8.560;2023-05-20T17:20:56;100442.19;;;16.84;100.00
31096;BME280;17749;51.962;8.560;2023-05-20T17:23:23;100434.03;;;16.86;100.00
31096;BME280;17749;51.962;8.560;2023-05-20T17:25:50;100440.97;;;16.90;100.00
31096;BME280;17749;51.962;8.560;2023-05-20T17:28:17;100442.28;;;16.97;100.00
31096;BME280;17749;51.962;8.560;2023-05-20T17:30:44;100443.47;;;16.93;100.00
31096;BME280;17749;51.962;8.560;2023-05-20T17:33:11;100432.66;;;16.79;100.00
31096;BME280;17749;51.962;8.560;2023-05-20T17:35:38;100432.81;;;16.76;100.00
31096;BME280;17749;51.962;8.560;2023-05-20T17:38:05;100427.72;;;16.71;100.00
31096;BME280;17749;51.962;8.560;2023-05-20T17:40:32;100426.06;;;16.69;100.00
31096;BME280;17749;51.962;8.560;2023-05-20T17:42:59;100427.22;;;16.64;100.00
31096;BME280;17749;51.962;8.560;2023-05-20T17:45:26;100432.69;;;16.63;100.00
31096;BME280;17749;51.962;8.560;2023-05-20T17:47:54;100435.09;;;16.53;100.00
31096;BME280;17749;51.962;8.560;2023-05-20T17:50:21;100434.50;;;16.48;100.00
31096;BME280;17749;51.962;8.560;2023-05-20T17:52:48;100436.75;;;16.40;100.00
31096;BME280;17749;51.962;8.560;2023-05-20T17:55:15;100449.25;;;16.41;100.00